EmailTwitter


Observations de surface / Québec / CYND

Régions: Québec | Canada | États-Unis | Europe | France | UK | Ailleurs
Station
Affichage
Infos & localisation pour CYND | Aide pour décoder les METARs

Observations prises le 2017-09-26 à 16H00 UTC à OTTAWA GATINEAU, QB (CYND)

Etat du ciel: quelques nuages.

Température: 29.0 Celsius

Point de rosée: 20.0 Celsius

Humidité relative: 58%

Indice Humidex: 37.

Vents: Variable à 7 km/h ou 4 noeuds.

Pression au niveau moyen de la mer: 101.55 kilopascals.

Calage altimétrique: 101.56 kilopascals ou 29.99 pouces de mercure.

Visibilité horizontale: 15.00 milles terrestres ou 24.00 kilomètres.

Observation METAR:

CYND 261600Z VRB04KT 15SM FEW190 FEW230 29/20 A2999 RMK CI1CI1 CC ASOCTD SLP155

DENSITY ALT 1800FT=